createdAt,value
2023-02-26T00:04:28.685Z,-1.50
2023-02-26T00:09:33.134Z,-1.58
2023-02-26T00:14:36.307Z,-1.71
2023-02-26T00:19:39.398Z,-1.78
2023-02-26T00:24:43.475Z,-1.76
2023-02-26T00:29:46.795Z,-1.84
2023-02-26T00:34:50.446Z,-1.86
2023-02-26T00:40:03.736Z,-1.92
2023-02-26T00:45:08.665Z,-1.90
2023-02-26T00:50:17.616Z,-1.89
2023-02-26T00:55:22.643Z,-1.87
2023-02-26T01:00:25.560Z,-1.87
2023-02-26T01:05:29.013Z,-1.83
2023-02-26T01:10:34.401Z,-1.89
2023-02-26T01:15:38.120Z,-1.87
2023-02-26T01:20:45.290Z,-1.85
2023-02-26T01:25:51.804Z,-1.85
2023-02-26T01:30:57.404Z,-1.83
2023-02-26T01:36:04.777Z,-1.84
2023-02-26T01:41:34.760Z,-1.75
2023-02-26T01:46:43.005Z,-1.80
2023-02-26T01:51:49.242Z,-1.82
2023-02-26T01:56:57.393Z,-1.75
2023-02-26T02:02:00.831Z,-1.78
2023-02-26T02:07:03.762Z,-1.79
2023-02-26T02:12:19.970Z,-1.83
2023-02-26T02:17:28.403Z,-1.75
2023-02-26T02:22:41.850Z,-1.80
2023-02-26T02:27:51.626Z,-1.78
2023-02-26T02:32:58.648Z,-1.72
2023-02-26T02:38:06.190Z,-1.81
2023-02-26T02:43:12.305Z,-1.81
2023-02-26T02:48:20.146Z,-1.76
2023-02-26T02:53:26.578Z,-1.79
2023-02-26T02:58:30.656Z,-1.79
2023-02-26T03:03:38.048Z,-1.79
2023-02-26T03:08:42.464Z,-1.83
2023-02-26T03:13:45.557Z,-1.85
2023-02-26T03:19:02.300Z,-1.93
2023-02-26T03:24:10.143Z,-1.91
2023-02-26T03:29:18.578Z,-2.00
2023-02-26T03:34:28.781Z,-2.07
2023-02-26T03:39:35.533Z,-2.05
2023-02-26T03:44:41.301Z,-2.05
2023-02-26T03:49:45.902Z,-2.01
2023-02-26T03:54:51.903Z,-2.05
2023-02-26T04:00:14.815Z,-2.13
2023-02-26T04:05:20.730Z,-2.13
2023-02-26T04:10:28.754Z,-2.21
2023-02-26T04:15:31.501Z,-2.21
2023-02-26T04:20:36.145Z,-2.24
2023-02-26T04:25:38.918Z,-2.31
2023-02-26T04:30:42.742Z,-2.25
2023-02-26T04:35:49.652Z,-2.32
2023-02-26T04:40:52.632Z,-2.32
2023-02-26T04:45:56.368Z,-2.32
2023-02-26T04:51:00.641Z,-2.33
2023-02-26T04:56:03.562Z,-2.37
2023-02-26T05:01:06.815Z,-2.43
2023-02-26T05:06:11.120Z,-2.39
2023-02-26T05:11:13.890Z,-2.41
2023-02-26T05:16:17.133Z,-2.54
2023-02-26T05:21:21.871Z,-2.43
2023-02-26T05:26:25.332Z,-2.47
2023-02-26T05:31:28.562Z,-2.44
2023-02-26T05:36:33.291Z,-2.48
2023-02-26T05:41:36.008Z,-2.46
2023-02-26T05:46:38.880Z,-2.40
2023-02-26T05:51:44.028Z,-2.35
2023-02-26T05:56:47.046Z,-2.28
2023-02-26T06:01:49.853Z,-2.23
2023-02-26T06:06:54.142Z,-2.28
2023-02-26T06:11:56.887Z,-2.26
2023-02-26T06:16:59.637Z,-2.25
2023-02-26T06:22:03.754Z,-2.33
2023-02-26T06:27:06.918Z,-2.28
2023-02-26T06:32:09.898Z,-2.47
2023-02-26T06:37:14.403Z,-2.47
2023-02-26T06:42:19.684Z,-2.47
2023-02-26T06:47:22.842Z,-2.31
2023-02-26T06:52:27.209Z,-2.36
2023-02-26T06:57:29.877Z,-2.35
2023-02-26T07:02:33.056Z,-2.25
2023-02-26T07:07:37.122Z,-2.27
2023-02-26T07:12:39.863Z,-2.32
2023-02-26T07:17:42.551Z,-2.43
2023-02-26T07:22:46.745Z,-2.32
2023-02-26T07:27:49.686Z,-2.38
2023-02-26T07:32:52.853Z,-2.32
2023-02-26T07:37:56.910Z,-2.20
2023-02-26T07:42:59.614Z,-2.12
2023-02-26T07:48:02.670Z,-1.62
2023-02-26T07:53:06.746Z,-1.70
2023-02-26T07:58:09.494Z,-1.34
2023-02-26T08:03:12.206Z,-0.96
2023-02-26T08:08:16.564Z,-1.59
2023-02-26T08:13:19.711Z,-1.55
2023-02-26T08:18:22.795Z,-1.47
2023-02-26T08:23:27.653Z,-1.35
2023-02-26T08:28:30.686Z,-1.34
2023-02-26T08:33:34.651Z,-1.24
2023-02-26T08:38:39.436Z,-1.10
2023-02-26T08:43:42.986Z,-0.94
2023-02-26T08:48:46.205Z,-0.94
2023-02-26T08:53:51.209Z,-0.82
2023-02-26T08:58:53.909Z,-0.64
2023-02-26T09:03:56.617Z,-0.64
2023-02-26T09:09:00.800Z,-0.48
2023-02-26T09:14:03.628Z,-0.42
2023-02-26T09:19:07.374Z,-0.21
2023-02-26T09:24:11.474Z,-0.19
2023-02-26T09:29:14.886Z,-0.07
2023-02-26T09:34:17.971Z,-0.05
2023-02-26T09:39:23.750Z,0.05
2023-02-26T09:44:27.219Z,0.14
2023-02-26T09:49:40.059Z,0.18
2023-02-26T09:54:48.532Z,0.22
2023-02-26T09:59:52.067Z,0.32
2023-02-26T10:05:03.468Z,0.32
2023-02-26T10:10:19.297Z,0.59
2023-02-26T10:15:24.861Z,0.50
2023-02-26T10:20:30.864Z,0.78
2023-02-26T10:25:40.399Z,0.84
2023-02-26T10:30:46.013Z,1.11
2023-02-26T10:35:52.099Z,1.10
2023-02-26T10:41:01.779Z,1.01
2023-02-26T10:46:13.634Z,1.28
2023-02-26T10:51:19.561Z,1.18
2023-02-26T10:56:26.410Z,1.30
2023-02-26T11:01:31.808Z,1.33
2023-02-26T11:06:39.688Z,1.23
2023-02-26T11:11:49.672Z,1.36
2023-02-26T11:17:03.670Z,1.57
2023-02-26T11:22:09.697Z,1.58
2023-02-26T11:27:16.926Z,1.50
2023-02-26T11:32:23.164Z,1.75
2023-02-26T11:37:29.334Z,2.00
2023-02-26T11:42:36.964Z,2.27
2023-02-26T11:47:39.789Z,2.13
2023-02-26T11:52:44.380Z,2.52
2023-02-26T11:57:54.014Z,2.22
2023-02-26T12:03:00.400Z,2.28
2023-02-26T12:08:05.337Z,2.34
2023-02-26T12:13:17.091Z,2.44
2023-02-26T12:18:32.038Z,2.31
2023-02-26T12:23:49.448Z,2.43
2023-02-26T12:29:14.112Z,2.64
2023-02-26T12:34:26.807Z,2.70
2023-02-26T12:39:42.868Z,2.58
2023-02-26T12:44:55.438Z,2.69
2023-02-26T12:50:08.372Z,2.84
2023-02-26T12:55:18.790Z,2.58
2023-02-26T13:00:37.489Z,2.70
2023-02-26T13:05:51.070Z,2.58
2023-02-26T13:11:02.664Z,2.99
2023-02-26T13:16:20.371Z,2.99
2023-02-26T13:21:26.462Z,3.46
2023-02-26T13:26:30.355Z,2.77
2023-02-26T13:31:38.127Z,3.11
2023-02-26T13:36:40.963Z,3.05
2023-02-26T13:41:47.016Z,3.00
2023-02-26T13:47:18.904Z,3.08
2023-02-26T13:52:27.422Z,3.24
2023-02-26T13:57:39.596Z,3.57
2023-02-26T14:02:49.797Z,3.19
2023-02-26T14:07:56.351Z,2.76
2023-02-26T14:13:17.951Z,2.60
2023-02-26T14:18:30.015Z,3.11
2023-02-26T14:23:37.238Z,3.13
2023-02-26T14:28:56.832Z,3.16
2023-02-26T14:34:10.139Z,3.27
2023-02-26T14:39:22.505Z,3.36
2023-02-26T14:44:28.400Z,3.07
2023-02-26T14:49:34.557Z,2.90
2023-02-26T14:54:49.153Z,3.10
2023-02-26T15:00:18.803Z,3.13
2023-02-26T15:05:33.649Z,3.24
2023-02-26T15:10:53.861Z,3.05
2023-02-26T15:15:57.724Z,3.05
2023-02-26T15:21:10.893Z,3.02
2023-02-26T15:26:20.637Z,2.84
2023-02-26T15:31:32.174Z,2.85
2023-02-26T15:36:36.353Z,2.83
2023-02-26T15:41:39.980Z,2.88
2023-02-26T15:46:45.075Z,2.83
2023-02-26T15:51:49.457Z,2.61
2023-02-26T15:56:52.731Z,2.69
2023-02-26T16:01:56.274Z,2.62
2023-02-26T16:07:01.337Z,2.60
2023-02-26T16:12:07.904Z,2.69
2023-02-26T16:17:14.580Z,2.57
2023-02-26T16:22:22.287Z,2.52
2023-02-26T16:27:26.779Z,2.38
2023-02-26T16:32:31.145Z,2.30
2023-02-26T16:37:37.839Z,2.25
2023-02-26T16:42:46.888Z,2.17
2023-02-26T16:47:51.545Z,2.15
2023-02-26T16:53:01.459Z,1.99
2023-02-26T16:58:07.622Z,1.88
2023-02-26T17:03:13.512Z,1.82
2023-02-26T17:08:19.672Z,1.77
2023-02-26T17:13:26.549Z,1.80
2023-02-26T17:18:29.575Z,1.78
2023-02-26T17:23:36.865Z,1.74
2023-02-26T17:28:42.346Z,1.67
2023-02-26T17:33:46.806Z,1.67
2023-02-26T17:38:51.134Z,1.59
2023-02-26T17:43:53.808Z,1.60
2023-02-26T17:48:56.961Z,1.57
2023-02-26T17:54:01.050Z,1.55
2023-02-26T17:59:05.138Z,1.55
2023-02-26T18:04:09.190Z,1.53
2023-02-26T18:09:14.284Z,1.51
2023-02-26T18:14:17.283Z,1.51
2023-02-26T18:19:20.053Z,1.53
2023-02-26T18:24:24.118Z,1.51
2023-02-26T18:29:26.856Z,1.44
2023-02-26T18:34:29.544Z,1.21
2023-02-26T18:39:37.551Z,1.29
2023-02-26T18:44:40.270Z,1.17
2023-02-26T18:49:43.251Z,1.07
2023-02-26T18:54:49.977Z,1.04
2023-02-26T18:59:52.705Z,1.01
2023-02-26T19:04:55.407Z,0.94
2023-02-26T19:09:59.550Z,0.92
2023-02-26T19:15:02.396Z,0.81
2023-02-26T19:20:05.941Z,0.81
2023-02-26T19:25:10.982Z,0.80
2023-02-26T19:30:14.045Z,0.76
2023-02-26T19:35:18.023Z,0.66
2023-02-26T19:40:22.327Z,0.65
2023-02-26T19:45:25.083Z,0.68
2023-02-26T19:50:27.801Z,0.57
2023-02-26T19:55:32.061Z,0.56
2023-02-26T20:00:34.922Z,0.61
2023-02-26T20:05:37.995Z,0.56
2023-02-26T20:10:44.355Z,0.57
2023-02-26T20:15:47.241Z,0.46
2023-02-26T20:20:50.980Z,0.44
2023-02-26T20:25:56.775Z,0.38
2023-02-26T20:30:59.603Z,0.41
2023-02-26T20:36:02.547Z,0.37
2023-02-26T20:41:07.205Z,0.28
2023-02-26T20:46:09.892Z,0.36
2023-02-26T20:51:12.937Z,0.35
2023-02-26T20:56:17.976Z,0.29
2023-02-26T21:01:20.744Z,0.20
2023-02-26T21:06:23.913Z,0.20
2023-02-26T21:11:30.839Z,0.21
2023-02-26T21:16:34.029Z,0.14
2023-02-26T21:21:36.785Z,0.15
2023-02-26T21:26:40.880Z,0.20
2023-02-26T21:31:43.682Z,0.17
2023-02-26T21:36:46.609Z,0.21
2023-02-26T21:41:50.795Z,0.01
2023-02-26T21:46:53.803Z,0.04
2023-02-26T21:51:56.495Z,0.04
2023-02-26T21:57:00.599Z,-0.08
2023-02-26T22:02:04.471Z,-0.23
2023-02-26T22:07:09.363Z,-0.30
2023-02-26T22:12:13.398Z,-0.41
2023-02-26T22:17:16.562Z,-0.44
2023-02-26T22:22:19.385Z,-0.48
2023-02-26T22:27:23.439Z,-0.58
2023-02-26T22:32:26.653Z,-0.42
2023-02-26T22:37:29.404Z,-0.35
2023-02-26T22:42:33.729Z,-0.47
2023-02-26T22:47:36.631Z,-0.37
2023-02-26T22:52:39.493Z,-0.51
2023-02-26T22:57:43.577Z,-0.55
2023-02-26T23:02:47.047Z,-0.61
2023-02-26T23:07:50.143Z,-0.61
2023-02-26T23:12:54.234Z,-0.61
2023-02-26T23:17:56.912Z,-0.51
2023-02-26T23:22:59.669Z,-0.55
2023-02-26T23:28:04.075Z,-0.59
2023-02-26T23:33:07.153Z,-0.57
2023-02-26T23:38:09.886Z,-0.54
2023-02-26T23:43:13.942Z,-0.63
2023-02-26T23:48:16.879Z,-0.80
2023-02-26T23:53:19.715Z,-0.78
2023-02-26T23:58:23.866Z,-0.84
